National Weather Service Raw Text Product

Displaying AFOS PIL: TAFFOD Received: 2018-08-11 07:13 UTC


342 
FTUS43 KDMX 110713 AAD
TAFFOD
TAF AMD
KFOD 110713Z 1107/1206 VRB03KT 2SM BR BKN002
     FM111300 VRB02KT 6SM BR FEW200
     FM111400 14004KT P6SM SCT250=